Iota, Louisiana
Current Conditions -  °F | °C
As of 2:15 AM on Friday 24 Oct 2014 (Local Time) from K3R7 Reporting Station
Clear Clear  
Wind Chill: 11°   Ceiling: Unl
Heat Index: 11°   Visibility: 10mi
Dew Point: 10°   Wind: 0mph
Humidity: 94%   Direction: NA
Pressure: 30.11"   Gusts: NA
Location:  30.33°N, 92.5°W
Report Text: K3R7 240715Z AUTO 00000KT 10SM CLR 11/10 A3011 RMK AO2 T01100100
Loading
Personal Weather Stations






























Interactive Weather Map
Tropical Storm Tracking
New forecast layout! Learn more

10-Day Weather Forecast

Advertisements
Track Severe Weather on mobile